Time;durP1;ratioP1;P1;durP2;ratioP2;P2;SDS_P1;SDS_P2;PMS_P1;PMS_P2;Temp;Humidity;BMP_temperature;BMP_pressure;BME280_temperature;BME280_humidity;BME280_pressure;Samples;Min_cycle;Max_cycle;Signal;HPM_P1;HPM_P2
2022/08/18 00:01:49;;;;;;;20.23;18.07;;;;;;;;;;5012830;28;20778;-76
2022/08/18 00:04:16;;;;;;;19.23;17.43;;;;;;;;;;5013230;28;20423;-76
2022/08/18 00:06:42;;;;;;;16.67;15.13;;;;;;;;;;5013281;28;20441;-76
2022/08/18 00:09:09;;;;;;;16.87;15.20;;;;;;;;;;5015094;28;20928;-76
2022/08/18 00:11:36;;;;;;;17.73;14.77;;;;;;;;;;5017079;28;20437;-77
2022/08/18 00:14:02;;;;;;;16.83;15.30;;;;;;;;;;5017207;28;20417;-77
2022/08/18 00:16:29;;;;;;;19.13;17.40;;;;;;;;;;5017113;28;21011;-77
2022/08/18 00:18:55;;;;;;;18.20;16.43;;;;;;;;;;5017052;28;20389;-76
2022/08/18 00:21:21;;;;;;;17.33;15.63;;;;;;;;;;5016745;28;20436;-75
2022/08/18 00:23:47;;;;;;;19.60;17.80;;;;;;;;;;5016968;28;20418;-76
2022/08/18 00:26:13;;;;;;;19.60;17.00;;;;;;;;;;5016752;28;20917;-77
2022/08/18 00:28:39;;;;;;;19.03;17.23;;;;;;;;;;5017003;28;20413;-76
2022/08/18 00:31:05;;;;;;;18.53;16.77;;;;;;;;;;5016392;28;20408;-77
2022/08/18 00:33:31;;;;;;;21.33;17.73;;;;;;;;;;5016951;28;20796;-78
2022/08/18 00:35:57;;;;;;;21.80;19.60;;;;;;;;;;4999190;28;20900;-76
2022/08/18 00:38:23;;;;;;;19.43;17.67;;;;;;;;;;4999331;28;20892;-76
2022/08/18 00:40:53;;;;;;;19.20;17.40;;;;;;;;;;5016290;28;20426;-76
2022/08/18 00:43:22;;;;;;;20.30;18.40;;;;;;;;;;5016570;28;20462;-76
2022/08/18 00:45:48;;;;;;;20.17;18.17;;;;;;;;;;5016485;28;20463;-77
2022/08/18 00:48:15;;;;;;;19.40;17.50;;;;;;;;;;5016384;28;20415;-76
2022/08/18 00:50:58;;;;;;;20.90;17.93;;;;;;;;;;5015916;28;20420;-77
2022/08/18 00:53:35;;;;;;;23.50;21.20;;;;;;;;;;5016401;28;20377;-76
2022/08/18 00:56:04;;;;;;;23.90;21.40;;;;;;;;;;5016386;28;20497;-76
2022/08/18 00:58:33;;;;;;;25.13;22.63;;;;;;;;;;5016168;28;20420;-76
2022/08/18 01:01:01;;;;;;;26.90;24.17;;;;;;;;;;5015950;28;20482;-76
2022/08/18 01:03:28;;;;;;;28.10;25.10;;;;;;;;;;5016495;28;20772;-76
2022/08/18 01:06:01;;;;;;;27.30;24.50;;;;;;;;;;5016367;28;20837;-75
2022/08/18 01:08:27;;;;;;;29.77;26.73;;;;;;;;;;5016094;28;20412;-76
2022/08/18 01:10:54;;;;;;;27.03;24.50;;;;;;;;;;5015738;28;20501;-76
2022/08/18 01:13:20;;;;;;;25.20;22.77;;;;;;;;;;5016000;28;20747;-76
2022/08/18 01:15:46;;;;;;;24.70;22.10;;;;;;;;;;5016218;28;20388;-76
2022/08/18 01:23:55;;;;;;;27.87;24.97;;;;;;;;;;5016074;28;20410;-76
2022/08/18 01:26:22;;;;;;;26.50;23.70;;;;;;;;;;5015975;28;20473;-76
2022/08/18 01:28:48;;;;;;;24.80;22.40;;;;;;;;;;5015829;28;20441;-76
2022/08/18 01:31:29;;;;;;;23.63;21.23;;;;;;;;;;5015399;28;20512;-76
2022/08/18 01:33:56;;;;;;;23.80;21.30;;;;;;;;;;4998240;28;20777;-76
2022/08/18 01:36:22;;;;;;;23.50;21.07;;;;;;;;;;5015597;28;20415;-76
2022/08/18 01:38:50;;;;;;;24.33;21.90;;;;;;;;;;5015517;28;20886;-76
2022/08/18 01:41:20;;;;;;;22.93;20.93;;;;;;;;;;5015255;28;20410;-76
2022/08/18 01:43:47;;;;;;;23.20;20.93;;;;;;;;;;5015404;28;20908;-76
2022/08/18 01:46:13;;;;;;;23.43;21.00;;;;;;;;;;5015383;28;20455;-76
2022/08/18 01:48:39;;;;;;;22.13;19.93;;;;;;;;;;5015246;28;20496;-76
2022/08/18 01:51:06;;;;;;;23.63;21.17;;;;;;;;;;5014900;28;20455;-76
2022/08/18 01:53:32;;;;;;;22.53;20.27;;;;;;;;;;5015291;28;20410;-76
2022/08/18 01:55:58;;;;;;;23.33;20.93;;;;;;;;;;5015216;28;20480;-76
2022/08/18 01:58:26;;;;;;;23.70;21.40;;;;;;;;;;5015141;28;20418;-76
2022/08/18 02:00:57;;;;;;;23.97;21.63;;;;;;;;;;5014701;28;20405;-77
2022/08/18 02:03:25;;;;;;;23.63;21.33;;;;;;;;;;5015092;28;20794;-76
2022/08/18 02:05:54;;;;;;;23.87;21.47;;;;;;;;;;5015077;28;20875;-76
2022/08/18 02:08:21;;;;;;;24.47;22.00;;;;;;;;;;5015068;28;20386;-76
2022/08/18 02:10:47;;;;;;;26.80;24.07;;;;;;;;;;5014528;28;20473;-76
2022/08/18 02:13:13;;;;;;;25.70;23.10;;;;;;;;;;5015106;28;20427;-77
2022/08/18 02:15:39;;;;;;;26.40;23.90;;;;;;;;;;5015170;28;20939;-76
2022/08/18 02:18:05;;;;;;;30.00;26.70;;;;;;;;;;5015052;28;20421;-76
2022/08/18 02:20:31;;;;;;;29.00;26.00;;;;;;;;;;5014581;28;20504;-76
2022/08/18 02:22:57;;;;;;;28.33;25.37;;;;;;;;;;5014802;28;20749;-76
2022/08/18 02:25:23;;;;;;;32.57;28.50;;;;;;;;;;5014636;28;20451;-76
2022/08/18 02:27:49;;;;;;;26.50;23.90;;;;;;;;;;5014642;28;20466;-76
2022/08/18 02:30:17;;;;;;;30.83;27.73;;;;;;;;;;5014178;28;20763;-76
2022/08/18 02:32:43;;;;;;;30.57;27.33;;;;;;;;;;5013726;28;20405;-76
2022/08/18 02:35:10;;;;;;;28.50;25.73;;;;;;;;;;5014461;28;20457;-79
2022/08/18 02:37:36;;;;;;;26.90;24.17;;;;;;;;;;5014565;28;20397;-76
2022/08/18 02:40:02;;;;;;;27.80;24.20;;;;;;;;;;5014241;28;20419;-76
2022/08/18 02:42:29;;;;;;;25.60;23.00;;;;;;;;;;5014319;28;20425;-76
2022/08/18 02:44:55;;;;;;;26.87;24.07;;;;;;;;;;5014391;28;20390;-76
2022/08/18 02:47:22;;;;;;;25.23;22.57;;;;;;;;;;5014181;28;20944;-76
2022/08/18 02:49:48;;;;;;;33.13;25.57;;;;;;;;;;5013900;28;20886;-76
2022/08/18 02:52:15;;;;;;;28.93;26.03;;;;;;;;;;5014191;28;20469;-76
2022/08/18 02:54:41;;;;;;;29.37;26.30;;;;;;;;;;5014429;28;20389;-76
2022/08/18 02:57:11;;;;;;;28.70;24.90;;;;;;;;;;5014047;28;20775;-76
2022/08/18 02:59:37;;;;;;;32.00;28.50;;;;;;;;;;5013712;28;20389;-75
2022/08/18 03:02:05;;;;;;;29.90;26.90;;;;;;;;;;5013982;28;20510;-75
2022/08/18 03:04:31;;;;;;;33.23;27.73;;;;;;;;;;5013949;28;20393;-76
2022/08/18 03:06:59;;;;;;;33.77;30.13;;;;;;;;;;5013898;28;20826;-76
2022/08/18 03:09:25;;;;;;;39.83;31.30;;;;;;;;;;5013580;28;20410;-76
2022/08/18 03:11:52;;;;;;;34.13;28.57;;;;;;;;;;5013649;28;20775;-76
2022/08/18 03:14:18;;;;;;;38.97;34.33;;;;;;;;;;5013770;28;20442;-76
2022/08/18 03:16:45;;;;;;;41.57;34.10;;;;;;;;;;5013887;28;20385;-75
2022/08/18 03:19:15;;;;;;;37.90;32.47;;;;;;;;;;5013759;28;20426;-75
2022/08/18 03:21:41;;;;;;;34.57;30.87;;;;;;;;;;5013250;28;20451;-76
2022/08/18 03:24:07;;;;;;;33.40;29.33;;;;;;;;;;5013485;28;20472;-76
2022/08/18 03:26:33;;;;;;;33.00;29.43;;;;;;;;;;5013617;28;20944;-76
2022/08/18 03:29:00;;;;;;;35.83;28.27;;;;;;;;;;5013798;28;20490;-76
2022/08/18 03:31:27;;;;;;;32.67;29.20;;;;;;;;;;5013471;28;20801;-76
2022/08/18 03:33:53;;;;;;;30.80;26.87;;;;;;;;;;5013567;28;20395;-76
2022/08/18 03:36:24;;;;;;;35.67;31.77;;;;;;;;;;5013555;28;20869;-76
2022/08/18 03:38:51;;;;;;;37.23;33.20;;;;;;;;;;5013521;28;20413;-76
2022/08/18 03:41:24;;;;;;;48.93;39.20;;;;;;;;;;5013098;28;20445;-76
2022/08/18 03:43:50;;;;;;;50.13;39.17;;;;;;;;;;5013082;28;20853;-75
2022/08/18 03:46:17;;;;;;;46.37;37.80;;;;;;;;;;5013351;28;20491;-76
2022/08/18 03:48:45;;;;;;;48.93;39.30;;;;;;;;;;5013269;28;20911;-77
2022/08/18 03:51:17;;;;;;;53.17;39.00;;;;;;;;;;5012797;28;20446;-76
2022/08/18 03:53:44;;;;;;;45.20;35.97;;;;;;;;;;5013232;28;20410;-76
2022/08/18 03:56:14;;;;;;;66.40;48.07;;;;;;;;;;5013210;28;20418;-75
2022/08/18 03:58:44;;;;;;;74.20;50.83;;;;;;;;;;5013341;28;20423;-76
2022/08/18 04:01:11;;;;;;;92.70;59.07;;;;;;;;;;5012926;28;20962;-75
2022/08/18 04:03:37;;;;;;;93.23;63.40;;;;;;;;;;5013172;28;20415;-76
2022/08/18 04:06:03;;;;;;;95.70;62.20;;;;;;;;;;5013074;28;20566;-76
2022/08/18 04:08:29;;;;;;;99.40;64.60;;;;;;;;;;5013036;28;20389;-75
2022/08/18 04:10:55;;;;;;;103.70;63.17;;;;;;;;;;5012857;28;20438;-76
2022/08/18 04:13:21;;;;;;;107.33;65.77;;;;;;;;;;5013193;28;20381;-76
2022/08/18 04:15:47;;;;;;;107.53;64.50;;;;;;;;;;5012932;28;20417;-76
2022/08/18 04:18:13;;;;;;;97.77;61.60;;;;;;;;;;4995777;28;20414;-76
2022/08/18 04:20:39;;;;;;;104.67;65.37;;;;;;;;;;4978942;28;20452;-76
2022/08/18 04:23:05;;;;;;;113.97;66.43;;;;;;;;;;5013136;28;20545;-76
2022/08/18 04:25:32;;;;;;;116.83;64.53;;;;;;;;;;5013208;28;20412;-75
2022/08/18 04:28:00;;;;;;;128.83;66.63;;;;;;;;;;5013014;28;20423;-76
2022/08/18 04:30:27;;;;;;;136.30;73.57;;;;;;;;;;5012596;28;20421;-75
2022/08/18 04:32:53;;;;;;;139.70;70.73;;;;;;;;;;5012811;28;20381;-76
2022/08/18 04:35:21;;;;;;;153.43;75.47;;;;;;;;;;5012912;28;20374;-75
2022/08/18 04:37:47;;;;;;;179.33;81.70;;;;;;;;;;5013095;28;20435;-75
2022/08/18 04:40:13;;;;;;;161.13;75.50;;;;;;;;;;5012340;28;20412;-75
2022/08/18 04:42:39;;;;;;;161.80;77.57;;;;;;;;;;5012860;28;20407;-75
2022/08/18 04:45:06;;;;;;;185.13;78.30;;;;;;;;;;5012770;28;20481;-75
2022/08/18 04:47:32;;;;;;;159.70;76.07;;;;;;;;;;5012860;28;20504;-76
2022/08/18 04:49:58;;;;;;;152.17;75.30;;;;;;;;;;5012548;28;20748;-75
2022/08/18 04:55:10;;;;;;;145.07;73.57;;;;;;;;;;4992140;28;20426;-76
2022/08/18 04:57:36;;;;;;;167.00;80.10;;;;;;;;;;5016293;28;20421;-75
2022/08/18 05:00:04;;;;;;;167.40;75.53;;;;;;;;;;5015820;28;20396;-76
2022/08/18 05:02:31;;;;;;;160.47;79.47;;;;;;;;;;5035849;28;20407;-75
2022/08/18 05:04:57;;;;;;;160.37;79.37;;;;;;;;;;5018227;28;20437;-76
2022/08/18 05:07:24;;;;;;;168.27;80.87;;;;;;;;;;5035688;28;20458;-76
2022/08/18 05:09:53;;;;;;;147.90;71.93;;;;;;;;;;5017945;28;20761;-75
2022/08/18 05:12:20;;;;;;;144.20;73.77;;;;;;;;;;5018203;28;20794;-76
2022/08/18 05:14:46;;;;;;;155.60;74.93;;;;;;;;;;5035918;28;20401;-77
2022/08/18 05:17:13;;;;;;;159.33;77.00;;;;;;;;;;5018159;28;20407;-78
2022/08/18 05:19:40;;;;;;;157.60;74.80;;;;;;;;;;5035359;28;20447;-76
2022/08/18 05:22:06;;;;;;;151.73;76.93;;;;;;;;;;5035668;28;20789;-77
2022/08/18 05:24:34;;;;;;;171.17;79.80;;;;;;;;;;5035459;28;20401;-77
2022/08/18 05:27:00;;;;;;;150.53;74.73;;;;;;;;;;5035515;28;20461;-77
2022/08/18 05:29:26;;;;;;;144.13;76.53;;;;;;;;;;5035446;28;20411;-77
2022/08/18 05:31:53;;;;;;;153.53;77.07;;;;;;;;;;5035150;28;20508;-77
2022/08/18 05:34:20;;;;;;;152.93;76.50;;;;;;;;;;5035463;28;20769;-76
2022/08/18 05:36:52;;;;;;;147.80;75.63;;;;;;;;;;5035533;28;20417;-76
2022/08/18 05:39:17;;;;;;;165.53;77.40;;;;;;;;;;5017750;28;20487;-76
2022/08/18 05:41:43;;;;;;;167.67;79.93;;;;;;;;;;5035056;28;20868;-76
2022/08/18 05:44:13;;;;;;;161.93;76.77;;;;;;;;;;5035272;28;20423;-76
2022/08/18 05:46:44;;;;;;;150.60;75.83;;;;;;;;;;5035243;28;20834;-76
2022/08/18 05:49:10;;;;;;;152.83;73.53;;;;;;;;;;5017428;28;20911;-77
2022/08/18 05:51:41;;;;;;;152.77;75.07;;;;;;;;;;5034459;28;20453;-75
2022/08/18 05:56:55;;;;;;;151.27;70.87;;;;;;;;;;5035260;28;20420;-76
2022/08/18 05:59:31;;;;;;;145.17;71.17;;;;;;;;;;5034974;28;20419;-76
2022/08/18 06:02:11;;;;;;;145.70;70.73;;;;;;;;;;5034901;28;20520;-75
2022/08/18 06:04:41;;;;;;;140.23;67.83;;;;;;;;;;5034794;28;20522;-76
2022/08/18 06:07:09;;;;;;;129.60;69.33;;;;;;;;;;5034415;28;20454;-76
2022/08/18 06:09:43;;;;;;;138.67;65.30;;;;;;;;;;5034531;28;20412;-76
2022/08/18 06:12:25;;;;;;;120.40;64.13;;;;;;;;;;5034678;28;20924;-75
2022/08/18 06:14:51;;;;;;;124.13;64.30;;;;;;;;;;5034665;28;20495;-76
2022/08/18 06:17:23;;;;;;;116.60;66.40;;;;;;;;;;5034597;28;20417;-75
2022/08/18 06:20:00;;;;;;;110.70;62.40;;;;;;;;;;5034166;28;20406;-75
2022/08/18 06:22:38;;;;;;;106.80;61.53;;;;;;;;;;5034415;28;20916;-75
2022/08/18 06:25:04;;;;;;;108.13;58.97;;;;;;;;;;5034674;28;20431;-76
2022/08/18 06:27:54;;;;;;;101.50;56.13;;;;;;;;;;5034350;28;20490;-76
2022/08/18 06:30:30;;;;;;;90.67;51.67;;;;;;;;;;5034268;28;20546;-76
2022/08/18 06:33:21;;;;;;;90.20;53.30;;;;;;;;;;5034527;28;20460;-75
2022/08/18 06:35:48;;;;;;;90.40;52.80;;;;;;;;;;5034507;28;20767;-76
2022/08/18 06:41:11;;;;;;;82.73;49.93;;;;;;;;;;5033841;28;20454;-76
2022/08/18 06:43:38;;;;;;;80.80;50.67;;;;;;;;;;5034095;28;20812;-75
2022/08/18 06:46:09;;;;;;;86.73;50.10;;;;;;;;;;5034175;28;20956;-76
2022/08/18 06:48:48;;;;;;;79.10;49.27;;;;;;;;;;5034250;28;20404;-76
2022/08/18 06:51:18;;;;;;;86.57;48.80;;;;;;;;;;5033568;28;20471;-76
2022/08/18 06:53:53;;;;;;;77.27;46.80;;;;;;;;;;5034098;28;20409;-75
2022/08/18 06:56:25;;;;;;;78.77;49.50;;;;;;;;;;5033870;28;20457;-76
2022/08/18 06:58:54;;;;;;;76.33;46.27;;;;;;;;;;5033919;28;20864;-76
2022/08/18 07:01:21;;;;;;;75.20;47.10;;;;;;;;;;5033335;28;20431;-76
2022/08/18 07:03:53;;;;;;;76.13;46.27;;;;;;;;;;5033920;28;20774;-76
2022/08/18 07:06:22;;;;;;;74.87;47.50;;;;;;;;;;5033751;28;20462;-76
2022/08/18 07:08:49;;;;;;;78.40;47.00;;;;;;;;;;5033582;28;20411;-75
2022/08/18 07:11:26;;;;;;;79.07;47.10;;;;;;;;;;5033161;28;20431;-75
2022/08/18 07:13:56;;;;;;;64.27;44.07;;;;;;;;;;5033980;28;20492;-75
2022/08/18 07:16:28;;;;;;;74.20;44.47;;;;;;;;;;5033995;28;20396;-75
2022/08/18 07:19:05;;;;;;;70.00;44.60;;;;;;;;;;5033183;28;20773;-75
2022/08/18 07:21:32;;;;;;;69.13;44.50;;;;;;;;;;5033235;28;20485;-75
2022/08/18 07:24:06;;;;;;;67.43;42.67;;;;;;;;;;5033663;28;20828;-77
2022/08/18 07:26:52;;;;;;;70.27;42.80;;;;;;;;;;5033388;28;20428;-75
2022/08/18 07:29:18;;;;;;;64.73;42.70;;;;;;;;;;5033311;28;20390;-75
2022/08/18 07:31:48;;;;;;;74.50;47.27;;;;;;;;;;5032847;28;20931;-75
2022/08/18 07:34:17;;;;;;;61.43;42.20;;;;;;;;;;5016228;28;20980;-75
2022/08/18 07:36:53;;;;;;;62.57;43.23;;;;;;;;;;4996471;28;20463;-75
2022/08/18 07:39:23;;;;;;;64.50;42.67;;;;;;;;;;5013726;28;20416;-75
2022/08/18 07:41:52;;;;;;;55.67;39.77;;;;;;;;;;5013129;28;20522;-75
2022/08/18 07:44:25;;;;;;;57.30;40.10;;;;;;;;;;5013439;28;20417;-74
2022/08/18 07:46:54;;;;;;;53.90;39.27;;;;;;;;;;5013554;28;20475;-76
2022/08/18 07:49:22;;;;;;;56.23;40.60;;;;;;;;;;5013442;28;20414;-74
2022/08/18 07:51:53;;;;;;;56.63;39.50;;;;;;;;;;5012964;28;20860;-76
2022/08/18 07:54:19;;;;;;;58.33;41.07;;;;;;;;;;5013339;28;20407;-75
2022/08/18 07:57:08;;;;;;;63.60;41.53;;;;;;;;;;4995686;28;20451;-74
2022/08/18 07:59:40;;;;;;;60.83;39.10;;;;;;;;;;4995388;28;20468;-75
2022/08/18 08:02:19;;;;;;;62.10;42.07;;;;;;;;;;5013219;28;20462;-76
2022/08/18 08:04:57;;;;;;;54.10;38.30;;;;;;;;;;5013325;28;20416;-76
2022/08/18 08:07:25;;;;;;;56.90;39.90;;;;;;;;;;5015593;28;20453;-75
2022/08/18 08:09:57;;;;;;;53.00;37.57;;;;;;;;;;5021329;28;20417;-76
2022/08/18 08:12:33;;;;;;;54.10;39.20;;;;;;;;;;5019095;28;20410;-75
2022/08/18 08:15:12;;;;;;;55.57;38.27;;;;;;;;;;5013298;28;20400;-74
2022/08/18 08:17:38;;;;;;;58.87;38.57;;;;;;;;;;5013245;28;20508;-75
2022/08/18 08:20:07;;;;;;;51.20;34.90;;;;;;;;;;5012659;28;20931;-75
2022/08/18 08:22:39;;;;;;;51.87;34.27;;;;;;;;;;5023953;28;20832;-76
2022/08/18 08:25:08;;;;;;;45.47;35.00;;;;;;;;;;5032701;28;20967;-75
2022/08/18 08:27:49;;;;;;;49.90;36.50;;;;;;;;;;5032841;28;20872;-74
2022/08/18 08:30:20;;;;;;;41.77;32.80;;;;;;;;;;5032924;28;20983;-74
2022/08/18 08:32:55;;;;;;;42.00;32.93;;;;;;;;;;5036563;28;20462;-75
2022/08/18 08:35:25;;;;;;;44.30;30.93;;;;;;;;;;5036944;28;20476;-74
2022/08/18 08:37:54;;;;;;;47.80;32.90;;;;;;;;;;5036669;28;20415;-74
2022/08/18 08:40:26;;;;;;;43.30;32.10;;;;;;;;;;5036203;28;20531;-75
2022/08/18 08:43:02;;;;;;;46.00;31.20;;;;;;;;;;5036459;28;20409;-75
2022/08/18 08:45:30;;;;;;;45.47;33.10;;;;;;;;;;5036317;28;20412;-76
2022/08/18 08:48:12;;;;;;;39.37;29.50;;;;;;;;;;5036219;28;20547;-75
2022/08/18 08:50:46;;;;;;;51.73;33.50;;;;;;;;;;5035892;28;20859;-73
2022/08/18 08:53:31;;;;;;;37.17;30.30;;;;;;;;;;5018631;28;20428;-76
2022/08/18 08:56:02;;;;;;;43.37;30.80;;;;;;;;;;5036203;28;20420;-75
2022/08/18 08:58:39;;;;;;;39.63;30.30;;;;;;;;;;5022223;28;20420;-75
2022/08/18 09:01:07;;;;;;;38.67;31.03;;;;;;;;;;5016099;28;20437;-75
2022/08/18 09:03:33;;;;;;;36.83;28.97;;;;;;;;;;5016300;28;20413;-75
2022/08/18 09:05:59;;;;;;;34.90;29.57;;;;;;;;;;5015989;28;20418;-76
2022/08/18 09:08:38;;;;;;;36.00;28.67;;;;;;;;;;5016095;28;20417;-75
2022/08/18 09:11:04;;;;;;;36.70;27.83;;;;;;;;;;5015872;28;20444;-75
2022/08/18 09:13:41;;;;;;;32.17;25.93;;;;;;;;;;5016157;28;20469;-76
2022/08/18 09:16:22;;;;;;;32.43;26.00;;;;;;;;;;5016022;28;20412;-75
2022/08/18 09:18:57;;;;;;;34.27;27.70;;;;;;;;;;4998421;28;20960;-75
2022/08/18 09:21:38;;;;;;;31.60;25.83;;;;;;;;;;5015602;28;20792;-75
2022/08/18 09:24:17;;;;;;;33.20;29.20;;;;;;;;;;5016126;28;20396;-75
2022/08/18 09:26:51;;;;;;;36.00;28.57;;;;;;;;;;5015964;28;20458;-73
2022/08/18 09:29:24;;;;;;;35.60;28.93;;;;;;;;;;4998351;28;20891;-74
2022/08/18 09:32:11;;;;;;;32.50;27.27;;;;;;;;;;5015378;28;20437;-74
2022/08/18 09:34:41;;;;;;;33.47;28.03;;;;;;;;;;4976334;28;20879;-74
2022/08/18 09:37:27;;;;;;;34.23;27.93;;;;;;;;;;5015535;28;20407;-74
2022/08/18 09:42:48;;;;;;;36.40;26.93;;;;;;;;;;5015017;28;20437;-74
2022/08/18 09:45:29;;;;;;;33.77;27.73;;;;;;;;;;5015470;28;20406;-75
2022/08/18 09:47:55;;;;;;;31.23;25.43;;;;;;;;;;5015507;28;20462;-76
2022/08/18 09:50:27;;;;;;;35.47;28.70;;;;;;;;;;5017395;28;20452;-75
2022/08/18 09:52:55;;;;;;;33.30;28.57;;;;;;;;;;5025937;28;20381;-75
2022/08/18 09:55:24;;;;;;;33.47;28.10;;;;;;;;;;5028276;28;20402;-77
2022/08/18 09:58:09;;;;;;;32.10;28.57;;;;;;;;;;5035133;28;20501;-77
2022/08/18 10:00:35;;;;;;;31.20;27.90;;;;;;;;;;5034488;28;20428;-77
2022/08/18 10:03:04;;;;;;;32.30;27.00;;;;;;;;;;5034918;28;20414;-78
2022/08/18 10:08:00;;;;;;;32.10;28.60;;;;;;;;;;5050720;28;20480;-76
2022/08/18 10:10:40;;;;;;;31.53;26.20;;;;;;;;;;5059502;28;20442;-75
2022/08/18 10:13:09;;;;;;;30.60;26.87;;;;;;;;;;5068597;28;20542;-76
2022/08/18 10:15:39;;;;;;;35.13;25.77;;;;;;;;;;5071856;28;20756;-75
2022/08/18 10:18:24;;;;;;;31.00;27.27;;;;;;;;;;5072898;28;20407;-79
2022/08/18 10:20:50;;;;;;;30.53;27.30;;;;;;;;;;5068830;28;20419;-76
2022/08/18 10:23:34;;;;;;;25.20;22.60;;;;;;;;;;5070125;28;20403;-76
2022/08/18 10:26:00;;;;;;;28.13;25.23;;;;;;;;;;5067739;28;20411;-77
2022/08/18 10:28:47;;;;;;;28.70;24.83;;;;;;;;;;5070345;28;20412;-77
2022/08/18 10:31:13;;;;;;;29.87;26.03;;;;;;;;;;5054040;28;20936;-77
2022/08/18 10:34:00;;;;;;;31.97;26.10;;;;;;;;;;5054459;28;20428;-77
2022/08/18 10:36:33;;;;;;;29.17;25.80;;;;;;;;;;5054627;28;20440;-76
2022/08/18 10:38:59;;;;;;;25.10;22.57;;;;;;;;;;5054335;28;20404;-77
2022/08/18 10:41:28;;;;;;;25.50;22.57;;;;;;;;;;5053885;28;20932;-77
2022/08/18 10:43:55;;;;;;;24.73;21.90;;;;;;;;;;5054347;28;20947;-77
2022/08/18 10:46:25;;;;;;;26.83;22.67;;;;;;;;;;5054161;28;20452;-79
2022/08/18 10:48:59;;;;;;;25.73;23.00;;;;;;;;;;5054150;28;20413;-79
2022/08/18 10:51:39;;;;;;;25.17;22.60;;;;;;;;;;5053845;28;20878;-77
2022/08/18 10:54:17;;;;;;;29.00;24.00;;;;;;;;;;5053249;28;20405;-77
2022/08/18 10:56:51;;;;;;;27.10;24.40;;;;;;;;;;5053830;28;20789;-77
2022/08/18 10:59:30;;;;;;;23.43;20.97;;;;;;;;;;5053924;28;20400;-75
2022/08/18 11:02:01;;;;;;;26.00;23.30;;;;;;;;;;5053866;28;20436;-75
2022/08/18 11:04:40;;;;;;;29.30;26.23;;;;;;;;;;5053638;28;20443;-74
2022/08/18 11:07:10;;;;;;;24.50;22.00;;;;;;;;;;5053365;28;20832;-75
2022/08/18 11:09:37;;;;;;;26.60;23.30;;;;;;;;;;5053539;28;20433;-75
2022/08/18 11:12:03;;;;;;;24.50;22.03;;;;;;;;;;5035958;28;20478;-75
2022/08/18 11:14:47;;;;;;;24.73;22.30;;;;;;;;;;5052956;28;20413;-74
2022/08/18 11:17:32;;;;;;;24.90;22.50;;;;;;;;;;5053338;28;20444;-75
2022/08/18 11:19:59;;;;;;;24.40;21.93;;;;;;;;;;5053232;28;20408;-75
2022/08/18 11:22:30;;;;;;;26.00;23.33;;;;;;;;;;5053461;28;20769;-74
2022/08/18 11:24:56;;;;;;;29.23;23.93;;;;;;;;;;5053317;28;20507;-75
2022/08/18 11:27:24;;;;;;;21.47;19.37;;;;;;;;;;5053593;28;20574;-75
2022/08/18 11:29:50;;;;;;;22.47;20.40;;;;;;;;;;5053314;28;20428;-75
2022/08/18 11:32:23;;;;;;;24.00;21.57;;;;;;;;;;5053284;28;20486;-75
2022/08/18 11:34:52;;;;;;;21.07;18.87;;;;;;;;;;5053833;28;20400;-75
2022/08/18 11:37:45;;;;;;;22.33;19.93;;;;;;;;;;5053093;28;20466;-75
2022/08/18 11:40:25;;;;;;;21.13;18.37;;;;;;;;;;5014923;28;20449;-75
2022/08/18 11:42:52;;;;;;;22.43;20.30;;;;;;;;;;5053440;28;20400;-74
2022/08/18 11:45:23;;;;;;;20.67;18.70;;;;;;;;;;5052943;28;20514;-75
2022/08/18 11:48:10;;;;;;;22.87;20.67;;;;;;;;;;5053298;28;20457;-75
2022/08/18 11:50:45;;;;;;;24.23;21.83;;;;;;;;;;5052869;28;20424;-75
2022/08/18 11:53:14;;;;;;;24.40;21.47;;;;;;;;;;5053304;28;20392;-75
2022/08/18 11:55:40;;;;;;;23.63;21.23;;;;;;;;;;5053004;28;20504;-75
2022/08/18 11:58:06;;;;;;;23.67;19.93;;;;;;;;;;5053237;28;20443;-75
2022/08/18 12:00:47;;;;;;;21.73;19.63;;;;;;;;;;5052623;28;20923;-75
2022/08/18 12:03:19;;;;;;;22.77;20.47;;;;;;;;;;5053098;28;20464;-74
2022/08/18 12:05:56;;;;;;;25.03;22.50;;;;;;;;;;5055689;28;20872;-74
2022/08/18 12:08:34;;;;;;;25.93;23.20;;;;;;;;;;5057170;28;20411;-74
2022/08/18 12:11:05;;;;;;;26.83;24.17;;;;;;;;;;5056660;28;20927;-74
2022/08/18 12:13:31;;;;;;;25.97;20.40;;;;;;;;;;5056910;28;20893;-75
2022/08/18 12:16:30;;;;;;;21.27;19.43;;;;;;;;;;5056903;28;20408;-74
2022/08/18 12:18:56;;;;;;;23.97;21.83;;;;;;;;;;5056920;28;20400;-74
2022/08/18 12:21:22;;;;;;;20.43;18.47;;;;;;;;;;5056251;28;20421;-76
2022/08/18 12:23:48;;;;;;;21.37;19.10;;;;;;;;;;5056898;28;20407;-74
2022/08/18 12:26:14;;;;;;;23.17;20.17;;;;;;;;;;5056742;28;20459;-75
2022/08/18 12:28:40;;;;;;;25.27;22.87;;;;;;;;;;5057062;28;20500;-74
2022/08/18 12:31:07;;;;;;;20.33;18.27;;;;;;;;;;5056323;28;20429;-74
2022/08/18 12:33:34;;;;;;;19.40;17.60;;;;;;;;;;5056625;28;20400;-74
2022/08/18 12:36:00;;;;;;;18.83;16.87;;;;;;;;;;5056557;28;20936;-74
2022/08/18 12:38:27;;;;;;;18.63;16.90;;;;;;;;;;5056600;28;20404;-75
2022/08/18 12:40:53;;;;;;;20.80;18.70;;;;;;;;;;5056191;28;20499;-74
2022/08/18 12:43:19;;;;;;;21.23;19.23;;;;;;;;;;5056398;28;20412;-74
2022/08/18 12:45:45;;;;;;;20.20;18.40;;;;;;;;;;5038853;28;20916;-74
2022/08/18 12:48:11;;;;;;;20.20;18.40;;;;;;;;;;5056462;28;20490;-74
2022/08/18 12:50:38;;;;;;;20.10;18.37;;;;;;;;;;5055915;28;20790;-74
2022/08/18 12:53:04;;;;;;;20.50;18.60;;;;;;;;;;5056239;28;20768;-74
2022/08/18 12:55:32;;;;;;;19.20;17.57;;;;;;;;;;5038262;28;20912;-75
2022/08/18 12:57:59;;;;;;;19.67;17.80;;;;;;;;;;5056036;28;20427;-74
2022/08/18 13:00:25;;;;;;;19.07;17.37;;;;;;;;;;5055793;28;20436;-74
2022/08/18 13:02:51;;;;;;;19.67;17.83;;;;;;;;;;5056240;28;20837;-74
2022/08/18 13:05:18;;;;;;;17.37;15.77;;;;;;;;;;5055994;28;20457;-74
2022/08/18 13:07:45;;;;;;;15.23;13.80;;;;;;;;;;5055633;28;20475;-77
2022/08/18 13:10:11;;;;;;;13.43;12.20;;;;;;;;;;5055651;28;20767;-75
2022/08/18 13:12:37;;;;;;;12.90;11.80;;;;;;;;;;5055843;28;20471;-74
2022/08/18 13:15:04;;;;;;;11.70;10.70;;;;;;;;;;5055861;28;20409;-74
2022/08/18 13:17:30;;;;;;;11.70;10.70;;;;;;;;;;5054763;28;20419;-75
2022/08/18 13:19:57;;;;;;;11.00;9.90;;;;;;;;;;5055208;28;20409;-75
2022/08/18 13:22:23;;;;;;;11.73;10.63;;;;;;;;;;5055644;28;20417;-74
2022/08/18 13:24:49;;;;;;;12.20;11.00;;;;;;;;;;5055864;28;20413;-74
2022/08/18 13:27:16;;;;;;;12.03;10.87;;;;;;;;;;5037802;28;20476;-74
2022/08/18 13:29:42;;;;;;;10.60;9.80;;;;;;;;;;5055194;28;20468;-75
2022/08/18 13:32:09;;;;;;;9.43;8.73;;;;;;;;;;5055386;28;20441;-74
2022/08/18 13:34:35;;;;;;;9.97;9.03;;;;;;;;;;5055633;28;20424;-74
2022/08/18 13:37:01;;;;;;;9.10;8.40;;;;;;;;;;5055416;28;20428;-74
2022/08/18 13:39:27;;;;;;;8.83;7.90;;;;;;;;;;5055488;28;20416;-74
2022/08/18 13:41:53;;;;;;;10.00;8.60;;;;;;;;;;5055109;28;20536;-75
2022/08/18 13:44:21;;;;;;;7.80;7.03;;;;;;;;;;5055198;28;20405;-74
2022/08/18 13:46:47;;;;;;;8.20;7.50;;;;;;;;;;5055200;28;20455;-74
2022/08/18 13:49:14;;;;;;;8.27;7.43;;;;;;;;;;5055162;28;20416;-75
2022/08/18 13:51:41;;;;;;;9.90;7.60;;;;;;;;;;5054689;28;20421;-74
2022/08/18 13:54:08;;;;;;;7.67;6.97;;;;;;;;;;5055104;28;20419;-75
2022/08/18 13:56:34;;;;;;;9.40;5.27;;;;;;;;;;5055085;28;20470;-74
2022/08/18 13:59:00;;;;;;;5.83;5.17;;;;;;;;;;5055125;28;20421;-74
2022/08/18 14:01:26;;;;;;;5.43;4.93;;;;;;;;;;5054728;28;20855;-74
2022/08/18 14:03:52;;;;;;;5.27;4.77;;;;;;;;;;5054953;28;20417;-74
2022/08/18 14:06:22;;;;;;;5.87;5.27;;;;;;;;;;5054547;28;20499;-75
2022/08/18 14:08:48;;;;;;;5.37;4.50;;;;;;;;;;5054781;28;20480;-74
2022/08/18 14:11:14;;;;;;;5.27;4.60;;;;;;;;;;5054439;28;20420;-74
2022/08/18 14:13:40;;;;;;;5.10;4.60;;;;;;;;;;5054671;28;20771;-74
2022/08/18 14:16:07;;;;;;;8.07;5.50;;;;;;;;;;5054569;28;20405;-75
2022/08/18 14:18:33;;;;;;;5.77;5.20;;;;;;;;;;5054358;28;20790;-74
2022/08/18 14:26:47;;;;;;;5.37;4.87;;;;;;;;;;5074766;28;20486;-74
2022/08/18 14:29:13;;;;;;;5.27;4.80;;;;;;;;;;5074512;28;20396;-74
2022/08/18 14:31:39;;;;;;;5.33;4.83;;;;;;;;;;5064404;28;20430;-74
2022/08/18 14:34:05;;;;;;;6.17;5.60;;;;;;;;;;5054535;28;20405;-74
2022/08/18 14:36:31;;;;;;;7.30;6.30;;;;;;;;;;5054232;28;20409;-73
2022/08/18 14:38:58;;;;;;;5.97;5.40;;;;;;;;;;5054199;28;20417;-73
2022/08/18 14:41:24;;;;;;;6.93;6.33;;;;;;;;;;5053792;28;20432;-73
2022/08/18 14:43:51;;;;;;;7.50;6.23;;;;;;;;;;5054165;28;20893;-73
2022/08/18 14:46:17;;;;;;;8.10;7.10;;;;;;;;;;5036734;28;20510;-74
2022/08/18 14:48:43;;;;;;;7.47;5.70;;;;;;;;;;5054191;28;20412;-73
2022/08/18 14:51:10;;;;;;;7.67;6.90;;;;;;;;;;5053881;28;20432;-74
2022/08/18 14:53:36;;;;;;;7.27;5.57;;;;;;;;;;5036116;28;20913;-73
2022/08/18 14:56:03;;;;;;;8.13;6.90;;;;;;;;;;5060091;28;20477;-74
2022/08/18 14:58:30;;;;;;;9.67;8.83;;;;;;;;;;5073580;28;20458;-73